• Join FlightAware (Why Join?)
  • Login
  • US Flag 
03:07AM EDT


 

Airport Tracker/Info


-or-


 

Live Flight TrackerFlight Track Log ✈ CPZ5710 ✈ 23-Jun-2013 ✈ KLGA - KIAH

Flight Track Log - Related Links

Times and Time Zones

All times are in EDT time to prevent confusion due to time zone crossing. See the CPZ5710 flight status page for this flight to view local times or setup timezone preferences in your user account.

Time Position Orientation Groundspeed Altitude Reporting Facility
EDT Latitude Longitude Course Direction KTS MPH feet Rate Location/Type
02:38PM 40.7500 -73.8500 258° West 148 170 1,300  Level New York TRACON
02:39PM 40.7500 -73.8000 90° East 222 255 2,600 1,800 Climbing New York TRACON
02:40PM 40.8167 -73.7667 21° North 249 287 5,000 2,340 Climbing New York TRACON
02:41PM 40.6619 -74.4311 259° West  Level FlightAware Approximate
02:41PM 40.8500 -73.8333 303° West 260 299 7,300  Level New York TRACON
02:42PM 40.6396 -74.5764 259° West  Level FlightAware Approximate
02:42PM 40.9000 -73.9167 308° West 283 326 9,000  Level New York TRACON
02:43PM 40.6058 -74.7156 258° West  Level FlightAware Approximate
02:43PM 40.8667 -74.0167 246° West 274 315 10,800  Level New York TRACON
02:44PM 40.8333 -74.1167 246° West 306 352 12,400 1,560 Climbing New York TRACON
02:45PM 40.8000 -74.2333 249° West 354 407 14,000 1,740 Climbing New York TRACON
02:46PM 40.7667 -74.3500 249° West 365 420 15,900 900 Climbing New York TRACON
02:48PM 40.6728 -74.6564 248° West 384 442 17,100 780 Climbing New York Center
02:49PM 40.6350 -74.7856 249° West 377 434 18,700 1,380 Climbing New York Center
02:50PM 40.6000 -74.8983 248° West 371 427 20,000 1,260 Climbing New York Center
02:51PM 40.5556 -75.0294 246° West 376 433 21,300 1,380 Climbing New York Center
02:52PM 40.4889 -75.1453 233° Southwest 382 440 22,800 1,440 Climbing New York Center
02:53PM 40.4200 -75.2556 231° Southwest 406 467 24,200 1,200 Climbing New York Center
02:54PM 40.3492 -75.3681 230° Southwest 406 467 25,200 900 Climbing New York Center
02:55PM 40.2736 -75.4828 229° Southwest 412 474 26,100 960 Climbing New York Center
02:56PM 40.2019 -75.6083 233° Southwest 425 489 27,200 900 Climbing New York Center
02:57PM 40.1361 -75.7342 236° Southwest 430 495 28,000 840 Climbing New York Center
02:58PM 40.0744 -75.8653 238° Southwest 430 495 28,900 900 Climbing New York Center
02:59PM 40.0083 -75.9933 236° Southwest 430 495 29,900 960 Climbing New York Center
03:00PM 39.9419 -76.1239 236° Southwest 430 495 30,900 900 Climbing New York Center
03:01PM 39.8586 -76.2581 231° Southwest 430 495 31,700 840 Climbing New York Center
03:02PM 39.7806 -76.3681 227° Southwest 430 495 32,600 840 Climbing New York Center
03:03PM 39.6981 -76.4775 226° Southwest 430 495 33,400 660 Climbing New York Center
03:04PM 39.6181 -76.5817 225° Southwest 421 484 34,000 240 Climbing New York Center
03:05PM 39.5375 -76.6908 226° Southwest 421 484 34,000  Level New York Center
03:07PM 39.4217 -76.8408 225° Southwest 418 481 34,000  Level Washington Center
03:08PM 39.3433 -76.9494 227° Southwest 423 487 34,000  Level Washington Center
03:09PM 39.2608 -77.0553 225° Southwest 423 487 34,000  Level Washington Center
03:10PM 39.1825 -77.1608 226° Southwest 423 487 34,000  Level Washington Center
03:11PM 39.0997 -77.2686 225° Southwest 423 487 34,000  Level Washington Center
03:12PM 39.0189 -77.3764 226° Southwest 423 487 34,000  Level Washington Center
03:13PM 38.9383 -77.4783 225° Southwest 423 487 34,000  Level Washington Center
03:14PM 38.8658 -77.5753 226° Southwest 423 487 34,000  Level Washington Center
03:15PM 38.7786 -77.6794 223° Southwest 423 487 34,000  Level Washington Center
03:16PM 38.7017 -77.7864 227° Southwest 423 487 34,000  Level Washington Center
03:17PM 38.6267 -77.8903 227° Southwest 413 475 34,000  Level Washington Center
03:18PM 38.5578 -78.0078 233° Southwest 413 475 34,000  Level Washington Center
03:19PM 38.4906 -78.1250 234° Southwest 413 475 34,000  Level Washington Center
03:20PM 38.4214 -78.2392 232° Southwest 418 481 34,000  Level Washington Center
03:21PM 38.3542 -78.3586 234° Southwest 413 475 34,000  Level Washington Center
03:22PM 38.2869 -78.4697 232° Southwest 408 470 34,000  Level Washington Center
03:23PM 38.2169 -78.5939 234° Southwest 403 464 34,000  Level Washington Center
03:24PM 38.1539 -78.6944 231° Southwest 403 464 34,000  Level Washington Center
03:25PM 38.0886 -78.8053 233° Southwest 403 464 34,000  Level Washington Center
03:26PM 38.0186 -78.9181 232° Southwest 403 464 34,000  Level Washington Center
03:27PM 37.9531 -79.0286 233° Southwest 403 464 34,000  Level Washington Center
03:28PM 37.8806 -79.1542 234° Southwest 403 464 34,000  Level Washington Center
03:29PM 37.8206 -79.2750 238° Southwest 408 470 34,000  Level Washington Center
03:30PM 37.7625 -79.3981 239° Southwest 408 470 34,000  Level Washington Center
03:31PM 37.6983 -79.5156 235° Southwest 413 475 34,000  Level Washington Center
03:32PM 37.6378 -79.6411 239° Southwest 413 475 34,000  Level Washington Center
03:33PM 37.5753 -79.7608 237° Southwest 418 481 34,000  Level Washington Center
03:34PM 37.5144 -79.8858 238° Southwest 425 489 34,000  Level Washington Center
03:35PM 37.4517 -80.0078 237° Southwest 425 489 34,000  Level Washington Center
03:37PM 37.3358 -80.2333 237° Southwest 431 496 34,000  Level Atlanta Center
03:38PM 37.2728 -80.3511 236° Southwest 424 488 34,000  Level Atlanta Center
03:39PM 37.2117 -80.4739 238° Southwest 424 488 34,000  Level Atlanta Center
03:40PM 37.1544 -80.5806 236° Southwest 424 488 34,000  Level Atlanta Center
03:41PM 37.0950 -80.7003 238° Southwest 418 481 34,000  Level Atlanta Center
03:42PM 37.0444 -80.8300 244° Southwest 418 481 34,000  Level Atlanta Center
03:43PM 36.9956 -80.9567 244° Southwest 412 474 34,000  Level Atlanta Center
03:44PM 36.9278 -81.0892 237° Southwest 420 483 34,000 180 Level Atlanta Center
03:45PM 36.8661 -81.2108 238° Southwest 425 489 34,400 480 Climbing Atlanta Center
03:46PM 36.8042 -81.3347 238° Southwest 425 489 35,000 420 Climbing Atlanta Center
03:47PM 36.7461 -81.4481 237° Southwest 413 475 35,300 480 Climbing Atlanta Center
03:48PM 36.6861 -81.5692 238° Southwest 408 470 36,000 300 Climbing Atlanta Center
03:49PM 36.6217 -81.6875 236° Southwest 415 478 36,000  Level Atlanta Center
03:50PM 36.5572 -81.8083 236° Southwest 421 484 36,000  Level Atlanta Center
03:51PM 36.4967 -81.9211 236° Southwest 416 479 36,000  Level Atlanta Center
03:52PM 36.4342 -82.0389 237° Southwest 416 479 36,000  Level Atlanta Center
03:53PM 36.3714 -82.1564 236° Southwest 416 479 36,000  Level Atlanta Center
03:54PM 36.3083 -82.2764 237° Southwest 421 484 36,000  Level Atlanta Center
03:55PM 36.2494 -82.3833 236° Southwest 421 484 36,000  Level Atlanta Center
03:56PM 36.1883 -82.4978 237° Southwest 413 475 36,000  Level Atlanta Center
03:57PM 36.1250 -82.6147 236° Southwest 413 475 36,000  Level Atlanta Center
03:58PM 36.0617 -82.7314 236° Southwest 413 475 36,000  Level Atlanta Center
03:59PM 35.9983 -82.8478 236° Southwest 418 481 36,000  Level Atlanta Center
04:00PM 35.9347 -82.9667 237° Southwest 418 481 36,000  Level Atlanta Center
04:01PM 35.8731 -83.0803 236° Southwest 411 473 36,000  Level Atlanta Center
04:02PM 35.8092 -83.1989 236° Southwest 421 484 36,000  Level Atlanta Center
04:03PM 35.7411 -83.3250 236° Southwest 421 484 36,000  Level Atlanta Center
04:04PM 35.6750 -83.4456 236° Southwest 421 484 36,000  Level Atlanta Center
04:05PM 35.6108 -83.5611 236° Southwest 421 484 36,000  Level Atlanta Center
04:06PM 35.5486 -83.6764 236° Southwest 421 484 36,000  Level Atlanta Center
04:07PM 35.4803 -83.7889 233° Southwest 421 484 36,000  Level Atlanta Center
04:08PM 35.3947 -83.8911 224° Southwest 421 484 36,000  Level Atlanta Center
04:09PM 35.3136 -83.9903 225° Southwest 421 484 36,000  Level Atlanta Center
04:10PM 35.2406 -84.1022 231° Southwest 421 484 36,000  Level Atlanta Center
04:11PM 35.1778 -84.2242 238° Southwest 427 491 36,000  Level Atlanta Center
04:12PM 35.1128 -84.3408 236° Southwest 427 491 36,000  Level Atlanta Center
04:13PM 35.0478 -84.4575 236° Southwest 422 486 36,000  Level Atlanta Center
04:14PM 34.9847 -84.5761 237° Southwest 422 486 36,000  Level Atlanta Center
04:15PM 34.9194 -84.6947 236° Southwest 422 486 36,000  Level Atlanta Center
04:16PM 34.8606 -84.8008 236° Southwest 422 486 36,000  Level Atlanta Center
04:17PM 34.7950 -84.9217 237° Southwest 422 486 36,000  Level Atlanta Center
04:18PM 34.7294 -85.0397 236° Southwest 422 486 36,000  Level Atlanta Center
04:19PM 34.6617 -85.1600 236° Southwest 427 491 36,000  Level Atlanta Center
04:20PM 34.5958 -85.2778 236° Southwest 427 491 36,000  Level Atlanta Center
04:21PM 34.5278 -85.3978 235° Southwest 432 497 36,000  Level Atlanta Center
04:22PM 34.4594 -85.5203 236° Southwest 432 497 36,000  Level Atlanta Center
04:23PM 34.3933 -85.6397 236° Southwest 437 503 36,000  Level Atlanta Center
04:24PM 34.3228 -85.7717 237° Southwest 432 497 36,000  Level Atlanta Center
04:25PM 34.2522 -85.8858 233° Southwest 432 497 36,000  Level Atlanta Center
04:26PM 34.1856 -86.0050 236° Southwest 432 497 36,000  Level Atlanta Center
04:27PM 34.1167 -86.1264 236° Southwest 432 497 36,000  Level Atlanta Center
04:28PM 34.0458 -86.2475 235° Southwest 437 503 36,000  Level Atlanta Center
04:29PM 33.9769 -86.3658 235° Southwest 437 503 36,000  Level Atlanta Center
04:30PM 33.9078 -86.4867 235° Southwest 437 503 36,000  Level Atlanta Center
04:31PM 33.8386 -86.6047 235° Southwest 437 503 36,000  Level Atlanta Center
04:32PM 33.7692 -86.7278 236° Southwest 437 503 36,000  Level Atlanta Center
04:33PM 33.6997 -86.8453 235° Southwest 437 503 36,000  Level Atlanta Center
04:34PM 33.6425 -86.9733 242° Southwest 442 509 36,000  Level Atlanta Center
04:35PM 33.5975 -87.1064 248° West 435 501 36,000  Level Atlanta Center
04:36PM 33.5522 -87.2419 248° West 435 501 36,000  Level Atlanta Center
04:39PM 33.3986 -87.6797 247° West 458 527 36,000  Level Memphis Center
04:40PM 33.3536 -87.8156 248° West 463 533 36,000  Level Memphis Center
04:41PM 33.3081 -87.9486 248° West 457 526 36,000  Level Memphis Center
04:42PM 33.2606 -88.0817 247° West 445 512 36,000  Level Memphis Center
04:43PM 33.2172 -88.2192 249° West 440 506 36,000  Level Memphis Center
04:44PM 33.1692 -88.3519 247° West 440 506 36,000  Level Memphis Center
04:45PM 33.1233 -88.4844 248° West 440 506 36,000  Level Memphis Center
04:46PM 33.0750 -88.6169 247° West 440 506 36,000  Level Memphis Center
04:47PM 33.0267 -88.7467 246° West 440 506 36,000  Level Memphis Center
04:48PM 32.9825 -88.8786 248° West 435 501 36,000  Level Memphis Center
04:49PM 32.9339 -89.0083 246° West 435 501 36,000  Level Memphis Center
04:50PM 32.8872 -89.1400 247° West 435 501 36,000  Level Memphis Center
04:51PM 32.8383 -89.2694 246° West 440 506 36,000  Level Memphis Center
04:52PM 32.7914 -89.4008 247° West 440 506 36,000  Level Memphis Center
04:53PM 32.7422 -89.5325 246° West 440 506 36,000  Level Memphis Center
04:54PM 32.6928 -89.6586 245° Southwest 440 506 36,000  Level Memphis Center
04:55PM 32.6456 -89.7897 247° West 440 506 36,000  Level Memphis Center
04:56PM 32.6003 -89.9183 247° West 435 501 36,000  Level Memphis Center
04:57PM 32.5525 -90.0492 247° West 435 501 36,000  Level Memphis Center
04:58PM 32.5006 -90.1775 244° Southwest 435 501 36,000  Level Memphis Center
04:59PM 32.4381 -90.3006 239° Southwest 435 501 36,000  Level Memphis Center
05:00PM 32.3756 -90.4214 239° Southwest 440 506 36,000  Level Memphis Center
05:02PM 32.2392 -90.6792 238° Southwest 429 494 36,000  Level Houston Center
05:03PM 32.1692 -90.8144 239° Southwest 428 493 36,000  Level Houston Center
05:04PM 32.1064 -90.9336 238° Southwest 428 493 36,000  Level Houston Center
05:05PM 32.0436 -91.0525 238° Southwest 428 493 36,000  Level Houston Center
05:06PM 31.9789 -91.1697 237° Southwest 427 491 36,000  Level Houston Center
05:07PM 31.9161 -91.2883 238° Southwest 425 489 36,000  Level Houston Center
05:08PM 31.8408 -91.4300 238° Southwest 426 490 36,000 -240 Level Houston Center
05:09PM 31.7781 -91.5472 238° Southwest 425 489 35,600 -480 Descending Houston Center
05:10PM 31.7144 -91.6628 237° Southwest 422 486 35,000 -300 Descending Houston Center
05:11PM 31.6500 -91.7819 238° Southwest 430 495 35,000  Level Houston Center
05:12PM 31.5856 -91.9011 238° Southwest 433 498 35,000  Level Houston Center
05:14PM 31.5245 -92.0108 237° Southwest  Level FlightAware Approximate
05:14PM 31.5128 -92.0339 237° Southwest 432 497 35,000  Level Houston Center
05:15PM 31.4489 -92.1500 237° Southwest 428 493 35,000  Level Houston Center
05:16PM 31.3847 -92.2672 237° Southwest 431 496 35,000  Level Houston Center
05:17PM 31.3203 -92.3844 237° Southwest 433 498 35,000  Level Houston Center
05:18PM 31.2406 -92.5242 236° Southwest 434 499 35,000  Level Houston Center
05:19PM 31.1772 -92.6422 238° Southwest 431 496 35,000  Level Houston Center
05:20PM 31.1128 -92.7578 237° Southwest 427 491 35,000 -240 Level Houston Center
05:21PM 31.0475 -92.8733 237° Southwest 428 493 34,600 -720 Descending Houston Center
05:22PM 30.9833 -92.9883 237° Southwest 426 490 33,600 -960 Descending Houston Center
05:23PM 30.9181 -93.1044 237° Southwest 429 494 32,700 -1,020 Descending Houston Center
05:24PM 30.8400 -93.2428 237° Southwest 430 495 31,500 -1,080 Descending Houston Center
05:25PM 30.7747 -93.3592 237° Southwest 431 496 30,500 -1,020 Descending Houston Center
05:26PM 30.7089 -93.4764 237° Southwest 434 499 29,500 -1,020 Descending Houston Center
05:27PM 30.6406 -93.5956 236° Southwest 443 510 28,500 -1,140 Descending Houston Center
05:28PM 30.5594 -93.7375 236° Southwest 448 516 27,200 -2,040 Descending Houston Center
05:29PM 30.4933 -93.8525 236° Southwest 437 503 24,400 -2,760 Descending Houston Center
05:30PM 30.4500 -93.9742 248° West 417 480 21,600 -2,700 Descending Houston Center
05:31PM 30.4344 -94.1011 262° West 398 458 18,900 -2,520 Descending Houston Center
05:32PM 30.4428 -94.2014 276° West 369 425 17,200 -2,460 Descending Houston Center
05:33PM 30.3828 -94.2967 234° Southwest 351 404 14,700 -2,400 Descending Houston Center
05:34PM 30.3089 -94.3767 223° Southwest 351 404 12,300 -1,920 Descending Houston Center
05:35PM 30.2425 -94.4506 224° Southwest 322 371 10,800 -1,440 Descending Houston Center
05:36PM 30.1875 -94.5111 224° Southwest 294 338 9,500 -1,560 Descending Houston Center
05:37PM 30.1572 -94.6092 250° West 290 334 7,600 -1,680 Descending Houston Center
05:38PM 30.1406 -94.6983 258° West 283 326 6,000 -840 Descending Houston Center
05:39PM 30.1258 -94.7850 259° West 277 319 6,000  Level Houston Center
05:40PM 30.1094 -94.8789 259° West 278 320 6,000  Level Houston Center
05:41PM 30.1053 -94.9686 267° West 278 320 6,000  Level Houston Center
05:42PM 30.1047 -95.0508 270° West 280 322 6,000 60 Level Houston Center
05:42PM 30.1058 -95.0806 272° West 280 322 6,100  Climbing Houston Center
05:43PM 30.1047 -95.1403 269° West 280 322 6,000  Descending Houston Center
05:44PM 30.1064 -95.1844 273° West 276 318 6,100  Climbing Houston Center
05:44PM 30.1058 -95.2222 269° West 230 265 6,000  Descending Houston Center
05:45PM 30.1067 -95.2583 272° West 247 284 6,100 60 Climbing Houston Center
05:46PM 30.1064 -95.3311 270° West 232 267 6,100 -540 Level Houston Center
05:46PM 30.1061 -95.3842 270° West 231 266 5,300 -1,380 Descending Houston Center
05:47PM 30.1067 -95.4589 271° West 235 270 4,000 -1,140 Descending Houston Center
05:48PM 30.1047 -95.5314 268° West 231 266 3,000 -540 Descending Houston Center
05:49PM 30.0636 -95.5653 216° Southwest 213 245 3,000  Level Houston Center
05:50PM 30.0414 -95.5628 174° South 216 249 3,000 -240 Level Houston Center
05:51PM 30.0067 -95.5133 129° Southeast 215 247 2,700 -300 Descending Houston Center